createdAt,value
2023-05-04T00:01:02.090Z,48.13
2023-05-04T00:03:30.726Z,47.79
2023-05-04T00:05:59.489Z,48.12
2023-05-04T00:08:28.477Z,48.46
2023-05-04T00:10:57.588Z,48.71
2023-05-04T00:13:26.136Z,48.91
2023-05-04T00:15:54.870Z,48.13
2023-05-04T00:18:23.611Z,48.63
2023-05-04T00:20:52.292Z,48.71
2023-05-04T00:23:21.034Z,48.20
2023-05-04T00:25:49.562Z,47.75
2023-05-04T00:28:18.161Z,48.03
2023-05-04T00:30:47.143Z,47.72
2023-05-04T00:33:15.928Z,48.30
2023-05-04T00:35:44.618Z,47.60
2023-05-04T00:38:13.710Z,48.14
2023-05-04T00:40:42.399Z,47.91
2023-05-04T00:43:11.085Z,48.51
2023-05-04T00:45:43.377Z,49.34
2023-05-04T00:48:14.662Z,48.33
2023-05-04T00:50:44.208Z,48.20
2023-05-04T00:53:12.892Z,49.08
2023-05-04T00:55:41.594Z,48.97
2023-05-04T00:58:10.154Z,49.48
2023-05-04T01:00:39.081Z,49.54
2023-05-04T01:03:10.007Z,49.22
2023-05-04T01:09:38.902Z,50.48
2023-05-04T01:12:30.863Z,50.41
2023-05-04T01:15:00.722Z,50.54
2023-05-04T01:17:30.511Z,50.57
2023-05-04T01:19:59.247Z,50.00
2023-05-04T01:22:28.138Z,50.11
2023-05-04T01:24:57.227Z,50.22
2023-05-04T01:27:38.820Z,50.20
2023-05-04T01:30:14.157Z,50.80
2023-05-04T01:32:43.776Z,50.69
2023-05-04T01:35:15.152Z,50.16
2023-05-04T01:37:44.108Z,49.71
2023-05-04T01:40:13.236Z,49.95
2023-05-04T01:42:41.890Z,50.02
2023-05-04T01:45:11.410Z,49.63
2023-05-04T01:47:39.934Z,49.91
2023-05-04T01:50:09.501Z,49.29
2023-05-04T01:52:38.394Z,49.84
2023-05-04T01:55:07.799Z,49.89
2023-05-04T01:57:36.357Z,50.38
2023-05-04T02:00:05.563Z,50.65
2023-05-04T02:02:44.204Z,50.65
2023-05-04T02:05:16.272Z,50.68
2023-05-04T02:07:44.817Z,50.40
2023-05-04T02:10:13.632Z,50.91
2023-05-04T02:12:43.400Z,51.00
2023-05-04T02:15:13.041Z,51.79
2023-05-04T02:17:41.687Z,50.78
2023-05-04T02:20:10.909Z,51.06
2023-05-04T02:22:39.944Z,50.38
2023-05-04T02:25:08.908Z,50.88
2023-05-04T02:27:38.561Z,50.20
2023-05-04T02:30:08.316Z,50.63
2023-05-04T02:32:36.880Z,51.63
2023-05-04T02:35:06.201Z,52.21
2023-05-04T02:37:34.738Z,51.98
2023-05-04T02:40:06.296Z,52.67
2023-05-04T02:42:35.029Z,52.18
2023-05-04T02:45:04.129Z,52.05
2023-05-04T02:47:32.693Z,52.34
2023-05-04T02:50:04.984Z,51.74
2023-05-04T02:52:34.243Z,53.11
2023-05-04T02:55:03.512Z,53.07
2023-05-04T02:57:38.201Z,53.01
2023-05-04T03:00:07.620Z,53.49
2023-05-04T03:02:39.318Z,54.25
2023-05-04T03:05:10.756Z,53.48
2023-05-04T03:07:40.629Z,53.41
2023-05-04T03:10:24.007Z,53.26
2023-05-04T03:12:52.709Z,53.82
2023-05-04T03:15:21.641Z,53.99
2023-05-04T03:17:50.176Z,52.35
2023-05-04T03:20:18.964Z,52.84
2023-05-04T03:22:47.583Z,53.50
2023-05-04T03:25:16.467Z,53.51
2023-05-04T03:27:45.165Z,53.53
2023-05-04T03:30:14.256Z,54.38
2023-05-04T03:32:43.272Z,55.41
2023-05-04T03:35:13.080Z,54.77
2023-05-04T03:37:43.498Z,54.37
2023-05-04T03:40:13.234Z,56.57
2023-05-04T03:42:41.814Z,56.34
2023-05-04T03:45:11.385Z,56.79
2023-05-04T03:47:39.992Z,56.45
2023-05-04T03:50:09.870Z,55.22
2023-05-04T03:52:38.290Z,54.36
2023-05-04T03:55:07.573Z,54.24
2023-05-04T03:57:36.084Z,54.94
2023-05-04T04:00:06.598Z,54.17
2023-05-04T04:02:43.453Z,54.58
2023-05-04T04:05:16.944Z,53.96
2023-05-04T04:07:46.554Z,54.48
2023-05-04T04:10:15.053Z,55.56
2023-05-04T04:12:44.162Z,54.13
2023-05-04T04:15:13.241Z,54.65
2023-05-04T04:17:41.962Z,54.60
2023-05-04T04:20:12.036Z,54.70
2023-05-04T04:22:40.575Z,54.88
2023-05-04T04:25:10.628Z,55.07
2023-05-04T04:27:39.529Z,54.84
2023-05-04T04:30:08.851Z,54.62
2023-05-04T04:32:37.765Z,54.09
2023-05-04T04:35:07.228Z,53.95
2023-05-04T04:37:35.703Z,53.54
2023-05-04T04:40:04.872Z,53.49
2023-05-04T04:42:34.159Z,53.18
2023-05-04T04:45:05.758Z,53.16
2023-05-04T04:47:34.278Z,52.86
2023-05-04T04:50:04.975Z,53.21
2023-05-04T04:52:35.106Z,52.88
2023-05-04T04:55:07.730Z,53.31
2023-05-04T04:57:36.560Z,52.81
2023-05-04T05:00:10.416Z,52.88
2023-05-04T05:02:38.980Z,52.41
2023-05-04T05:05:08.892Z,52.91
2023-05-04T05:07:37.354Z,52.68
2023-05-04T05:10:07.054Z,52.59
2023-05-04T05:12:36.284Z,52.24
2023-05-04T05:15:05.417Z,52.24
2023-05-04T05:17:35.979Z,52.01
2023-05-04T05:20:10.942Z,51.70
2023-05-04T05:22:40.644Z,51.88
2023-05-04T05:25:09.349Z,51.49
2023-05-04T05:27:38.216Z,51.37
2023-05-04T05:30:07.666Z,51.43
2023-05-04T05:32:36.517Z,50.94
2023-05-04T05:35:05.855Z,50.81
2023-05-04T05:37:34.476Z,50.41
2023-05-04T05:40:06.628Z,50.35
2023-05-04T05:42:35.867Z,50.32
2023-05-04T05:45:09.362Z,50.35
2023-05-04T05:47:37.902Z,50.16
2023-05-04T05:50:08.073Z,50.20
2023-05-04T05:52:36.648Z,49.96
2023-05-04T05:55:05.720Z,49.62
2023-05-04T05:57:36.963Z,49.56
2023-05-04T06:00:07.129Z,49.20
2023-05-04T06:02:42.024Z,49.03
2023-05-04T06:05:11.240Z,49.05
2023-05-04T06:07:39.642Z,48.83
2023-05-04T06:10:09.758Z,48.71
2023-05-04T06:12:38.564Z,48.21
2023-05-04T06:15:08.499Z,48.39
2023-05-04T06:17:37.129Z,48.29
2023-05-04T06:20:07.858Z,48.11
2023-05-04T06:22:36.528Z,48.26
2023-05-04T06:25:07.984Z,48.22
2023-05-04T06:27:37.373Z,47.62
2023-05-04T06:30:07.345Z,47.61
2023-05-04T06:32:36.195Z,47.32
2023-05-04T06:35:05.862Z,47.61
2023-05-04T06:37:34.285Z,47.30
2023-05-04T06:40:04.373Z,47.30
2023-05-04T06:42:33.709Z,47.25
2023-05-04T06:45:02.404Z,47.40
2023-05-04T06:47:31.340Z,46.81
2023-05-04T06:50:00.307Z,47.18
2023-05-04T06:52:30.273Z,46.91
2023-05-04T06:55:00.336Z,45.80
2023-05-04T06:57:29.884Z,46.38
2023-05-04T06:59:58.825Z,46.12
2023-05-04T07:02:27.611Z,45.91
2023-05-04T07:04:57.894Z,46.12
2023-05-04T07:07:26.787Z,46.26
2023-05-04T07:09:55.281Z,46.68
2023-05-04T07:12:24.072Z,46.32
2023-05-04T07:15:01.678Z,45.92
2023-05-04T07:17:32.446Z,45.88
2023-05-04T07:20:06.159Z,46.31
2023-05-04T07:22:34.965Z,46.70
2023-05-04T07:25:05.908Z,46.68
2023-05-04T07:27:38.295Z,46.39
2023-05-04T07:30:08.461Z,46.40
2023-05-04T07:32:37.200Z,46.79
2023-05-04T07:35:06.796Z,46.94
2023-05-04T07:37:35.505Z,47.29
2023-05-04T07:40:06.400Z,46.94
2023-05-04T07:42:35.425Z,47.05
2023-05-04T07:45:14.642Z,47.42
2023-05-04T07:47:46.005Z,47.32
2023-05-04T07:50:15.818Z,47.56
2023-05-04T07:52:49.404Z,47.66
2023-05-04T07:55:19.222Z,48.61
2023-05-04T07:57:48.014Z,48.48
2023-05-04T08:00:17.531Z,49.03
2023-05-04T08:02:47.810Z,48.93
2023-05-04T08:05:16.747Z,49.18
2023-05-04T08:07:46.362Z,49.89
2023-05-04T08:10:14.915Z,49.84
2023-05-04T08:12:44.283Z,50.67
2023-05-04T08:15:13.309Z,50.57
2023-05-04T08:17:41.905Z,50.67
2023-05-04T08:20:10.983Z,51.26
2023-05-04T08:22:39.584Z,50.79
2023-05-04T08:25:09.758Z,51.03
2023-05-04T08:27:39.941Z,50.65
2023-05-04T08:30:09.910Z,50.63
2023-05-04T08:32:38.462Z,50.09
2023-05-04T08:35:16.234Z,49.42
2023-05-04T08:37:45.324Z,48.94
2023-05-04T08:40:14.537Z,49.03
2023-05-04T08:42:44.650Z,49.18
2023-05-04T08:45:13.628Z,49.40
2023-05-04T08:47:45.349Z,49.09
2023-05-04T08:50:20.466Z,49.03
2023-05-04T08:52:53.274Z,48.73
2023-05-04T08:55:50.010Z,48.69
2023-05-04T13:53:47.180Z,40.54
2023-05-04T13:56:15.956Z,40.04
2023-05-04T13:58:45.170Z,40.39
2023-05-04T14:01:14.305Z,39.90
2023-05-04T14:03:43.547Z,39.83
2023-05-04T14:06:12.023Z,40.57
2023-05-04T14:08:41.432Z,40.89
2023-05-04T14:11:10.565Z,40.67
2023-05-04T14:13:38.944Z,40.30
2023-05-04T14:16:08.636Z,40.42
2023-05-04T14:18:37.772Z,39.94
2023-05-04T14:21:06.384Z,39.31
2023-05-04T14:23:35.692Z,39.63
2023-05-04T14:26:05.627Z,39.61
2023-05-04T14:28:35.853Z,40.55
2023-05-04T14:31:09.230Z,40.17
2023-05-04T14:33:42.504Z,40.01
2023-05-04T14:36:12.113Z,39.63
2023-05-04T14:38:40.943Z,39.95
2023-05-04T14:41:10.655Z,40.06
2023-05-04T14:43:39.430Z,40.10
2023-05-04T14:46:09.765Z,39.71
2023-05-04T14:48:38.374Z,40.17
2023-05-04T14:51:07.319Z,40.25
2023-05-04T14:53:37.255Z,40.30
2023-05-04T14:56:08.852Z,40.17
2023-05-04T14:58:37.673Z,40.67
2023-05-04T15:01:07.104Z,40.67
2023-05-04T15:03:36.398Z,41.58
2023-05-04T15:06:07.766Z,40.77
2023-05-04T15:08:36.980Z,40.28
2023-05-04T15:11:05.807Z,40.38
2023-05-04T15:13:34.392Z,40.20
2023-05-04T15:16:03.940Z,39.75
2023-05-04T15:18:32.382Z,40.21
2023-05-04T15:21:01.268Z,39.98
2023-05-04T15:23:29.764Z,40.26
2023-05-04T15:25:58.433Z,40.49
2023-05-04T15:28:27.021Z,40.59
2023-05-04T15:30:56.625Z,40.54
2023-05-04T15:33:25.319Z,40.35
2023-05-04T15:35:53.827Z,40.67
2023-05-04T15:38:22.367Z,40.87
2023-05-04T15:40:50.952Z,40.67
2023-05-04T15:43:19.561Z,40.96
2023-05-04T15:45:48.224Z,41.01
2023-05-04T15:48:16.974Z,41.09
2023-05-04T15:50:45.805Z,41.60
2023-05-04T15:53:14.892Z,41.78
2023-05-04T15:55:43.474Z,42.09
2023-05-04T15:58:12.300Z,42.10
2023-05-04T16:00:40.857Z,42.52
2023-05-04T16:03:09.415Z,42.95
2023-05-04T16:05:38.364Z,43.13
2023-05-04T16:08:06.918Z,42.82
2023-05-04T16:10:36.619Z,43.30
2023-05-04T16:13:06.173Z,43.52
2023-05-04T16:15:35.528Z,43.66
2023-05-04T16:18:04.702Z,43.90
2023-05-04T16:20:36.435Z,43.74
2023-05-04T16:23:04.767Z,44.19
2023-05-04T16:25:33.688Z,44.33
2023-05-04T16:28:02.286Z,44.70
2023-05-04T16:30:33.167Z,44.65
2023-05-04T16:33:02.182Z,44.92
2023-05-04T16:35:34.439Z,45.01
2023-05-04T16:38:04.121Z,45.33
2023-05-04T16:40:33.063Z,45.35
2023-05-04T16:43:01.639Z,45.62
2023-05-04T16:45:32.375Z,45.74
2023-05-04T16:48:01.516Z,45.84
2023-05-04T16:50:30.302Z,46.12
2023-05-04T16:52:59.441Z,45.94
2023-05-04T16:55:27.941Z,46.04
2023-05-04T16:57:59.635Z,46.07
2023-05-04T17:00:28.576Z,46.07
2023-05-04T17:02:56.967Z,46.36
2023-05-04T17:05:25.563Z,46.35
2023-05-04T17:07:54.260Z,46.40
2023-05-04T17:10:22.725Z,46.41
2023-05-04T17:12:54.992Z,46.54
2023-05-04T17:15:23.700Z,46.91
2023-05-04T17:17:52.213Z,47.14
2023-05-04T17:20:21.975Z,47.21
2023-05-04T17:22:51.800Z,47.31
2023-05-04T17:25:20.622Z,47.44
2023-05-04T17:27:49.183Z,47.82
2023-05-04T17:30:17.487Z,48.08
2023-05-04T17:32:45.755Z,48.22
2023-05-04T17:35:24.008Z,48.35
2023-05-04T17:37:58.881Z,48.43
2023-05-04T17:40:29.102Z,48.47
2023-05-04T17:42:57.640Z,48.73
2023-05-04T17:45:26.250Z,48.80
2023-05-04T17:47:54.789Z,48.67
2023-05-04T17:50:23.550Z,48.55
2023-05-04T17:52:55.803Z,49.10
2023-05-04T17:55:25.021Z,48.70
2023-05-04T17:57:54.915Z,49.63
2023-05-04T18:00:23.438Z,49.84
2023-05-04T18:02:52.333Z,49.09
2023-05-04T18:05:20.861Z,49.63
2023-05-04T18:07:49.250Z,49.36
2023-05-04T18:10:17.846Z,49.03
2023-05-04T18:12:46.818Z,49.09
2023-05-04T18:15:17.300Z,49.42
2023-05-04T18:17:46.037Z,50.07
2023-05-04T18:20:18.772Z,49.76
2023-05-04T18:22:47.760Z,49.70
2023-05-04T18:25:16.069Z,49.52
2023-05-04T18:27:44.536Z,50.02
2023-05-04T18:30:13.206Z,50.44
2023-05-04T18:32:41.755Z,50.51
2023-05-04T18:35:10.448Z,50.67
2023-05-04T18:37:39.214Z,50.69
2023-05-04T18:40:08.732Z,50.53
2023-05-04T18:42:37.665Z,51.35
2023-05-04T18:45:07.188Z,51.47
2023-05-04T18:47:35.598Z,51.60
2023-05-04T18:50:04.361Z,51.95
2023-05-04T18:52:34.062Z,52.10
2023-05-04T18:55:02.757Z,50.94
2023-05-04T18:57:31.335Z,51.02
2023-05-04T18:59:59.844Z,51.17
2023-05-04T19:02:30.235Z,51.28
2023-05-04T19:04:58.799Z,51.29
2023-05-04T19:07:27.118Z,51.40
2023-05-04T19:09:55.747Z,51.57
2023-05-04T19:12:24.418Z,51.95
2023-05-04T19:14:53.080Z,51.63
2023-05-04T19:17:23.210Z,52.10
2023-05-04T19:19:52.098Z,52.55
2023-05-04T19:22:21.660Z,52.62
2023-05-04T19:24:51.444Z,53.31
2023-05-04T19:30:59.891Z,53.50
2023-05-04T19:33:36.682Z,53.27
2023-05-04T19:36:14.259Z,54.56
2023-05-04T19:38:42.700Z,54.27
2023-05-04T19:41:11.527Z,53.91
2023-05-04T19:43:39.867Z,53.81
2023-05-04T19:46:08.636Z,53.70
2023-05-04T19:48:38.443Z,55.21
2023-05-04T19:51:07.003Z,55.64
2023-05-04T19:53:35.467Z,56.54
2023-05-04T19:56:04.017Z,56.93
2023-05-04T19:58:32.564Z,57.01
2023-05-04T20:01:01.228Z,58.07
2023-05-04T20:03:29.806Z,55.83
2023-05-04T20:05:58.387Z,55.75
2023-05-04T20:08:27.094Z,55.58
2023-05-04T20:10:55.534Z,55.75
2023-05-04T20:13:25.755Z,55.97
2023-05-04T20:15:54.200Z,56.07
2023-05-04T20:18:23.547Z,56.45
2023-05-04T20:20:52.375Z,57.35
2023-05-04T20:23:20.892Z,57.62
2023-05-04T20:25:50.130Z,57.71
2023-05-04T20:28:18.535Z,58.09
2023-05-04T20:30:46.917Z,58.64
2023-05-04T20:33:15.354Z,58.13
2023-05-04T20:35:45.345Z,58.43
2023-05-04T20:38:14.392Z,59.15
2023-05-04T20:40:42.800Z,60.16
2023-05-04T20:43:11.570Z,59.71
2023-05-04T20:45:40.345Z,59.44
2023-05-04T20:48:11.187Z,59.77
2023-05-04T20:50:40.756Z,60.99
2023-05-04T20:53:09.521Z,60.55
2023-05-04T20:55:40.720Z,59.97
2023-05-04T20:58:09.660Z,59.87
2023-05-04T21:00:38.193Z,60.66
2023-05-04T21:03:07.399Z,61.33
2023-05-04T21:05:39.132Z,61.40
2023-05-04T21:08:07.348Z,60.63
2023-05-04T21:10:35.826Z,60.82
2023-05-04T21:13:04.485Z,61.42
2023-05-04T21:15:32.842Z,60.87
2023-05-04T21:18:01.308Z,60.94
2023-05-04T21:20:29.787Z,62.22
2023-05-04T21:22:58.166Z,62.64
2023-05-04T21:25:26.567Z,62.02
2023-05-04T21:27:58.624Z,63.14
2023-05-04T21:30:30.360Z,62.91
2023-05-04T21:33:00.500Z,62.04
2023-05-04T21:35:32.320Z,62.10
2023-05-04T21:38:00.804Z,62.70
2023-05-04T21:40:29.213Z,62.80
2023-05-04T21:42:59.989Z,63.04
2023-05-04T21:45:31.638Z,63.21
2023-05-04T21:48:02.483Z,62.97
2023-05-04T21:50:31.246Z,63.87
2023-05-04T21:53:00.793Z,64.10
2023-05-04T21:55:32.270Z,64.23
2023-05-04T21:58:06.406Z,65.22
2023-05-04T22:00:35.062Z,65.75
2023-05-04T22:03:08.177Z,65.88
2023-05-04T22:05:36.677Z,65.62
2023-05-04T22:08:06.062Z,66.92
2023-05-04T22:10:35.482Z,67.06
2023-05-04T22:13:04.069Z,66.19
2023-05-04T22:15:46.356Z,66.10
2023-05-04T22:18:18.736Z,66.94
2023-05-04T22:20:47.726Z,66.73
2023-05-04T22:23:16.724Z,66.62
2023-05-04T22:25:45.576Z,66.99
2023-05-04T22:28:15.257Z,66.95
2023-05-04T22:30:44.729Z,67.04
2023-05-04T22:33:13.931Z,67.34
2023-05-04T22:35:49.867Z,67.78
2023-05-04T22:38:18.591Z,67.78
2023-05-04T22:40:48.641Z,67.56
2023-05-04T22:43:18.340Z,67.88
2023-05-04T22:45:47.262Z,68.88
2023-05-04T22:48:15.821Z,69.28
2023-05-04T22:50:44.267Z,69.56
2023-05-04T22:53:14.808Z,69.26
2023-05-04T22:55:43.645Z,68.91
2023-05-04T22:58:12.487Z,69.29
2023-05-04T23:00:44.433Z,69.84
2023-05-04T23:03:16.743Z,70.37
2023-05-04T23:05:45.704Z,70.54
2023-05-04T23:08:14.550Z,70.20
2023-05-04T23:10:47.567Z,70.10
2023-05-04T23:13:17.229Z,70.78
2023-05-04T23:15:46.155Z,70.84
2023-05-04T23:18:14.872Z,71.15
2023-05-04T23:20:43.521Z,70.62
2023-05-04T23:23:11.898Z,71.42
2023-05-04T23:25:40.730Z,71.46
2023-05-04T23:28:09.435Z,71.48
2023-05-04T23:30:38.016Z,71.49
2023-05-04T23:33:07.033Z,71.29
2023-05-04T23:35:35.626Z,72.10
2023-05-04T23:38:04.592Z,72.16
2023-05-04T23:40:33.286Z,72.01
2023-05-04T23:43:02.438Z,72.01
2023-05-04T23:45:31.386Z,72.50
2023-05-04T23:48:01.132Z,72.62
2023-05-04T23:50:29.811Z,72.59
2023-05-04T23:52:58.615Z,72.73
2023-05-04T23:55:27.431Z,72.96
2023-05-04T23:57:56.028Z,73.45
